createdAt,value
2023-03-22T00:02:35.340Z,11.65
2023-03-22T00:14:35.407Z,11.65
2023-03-22T00:26:35.437Z,11.63
2023-03-22T00:38:42.097Z,11.62
2023-03-22T00:50:35.466Z,11.61
2023-03-22T01:02:35.441Z,11.60
2023-03-22T01:14:35.409Z,11.59
2023-03-22T01:26:35.403Z,11.58
2023-03-22T01:38:35.464Z,11.57
2023-03-22T01:50:35.340Z,11.55
2023-03-22T02:02:35.440Z,11.55
2023-03-22T02:14:35.324Z,11.54
2023-03-22T02:26:35.328Z,11.53
2023-03-22T02:38:35.326Z,11.51
2023-03-22T02:50:35.454Z,11.51
2023-03-22T03:02:35.333Z,11.49
2023-03-22T03:14:35.351Z,11.47
2023-03-22T03:26:35.329Z,11.47
2023-03-22T03:38:35.325Z,11.46
2023-03-22T03:50:35.328Z,11.45
2023-03-22T04:02:35.433Z,11.44
2023-03-22T04:14:35.351Z,11.43
2023-03-22T04:26:35.328Z,11.42
2023-03-22T04:38:35.339Z,11.41
2023-03-22T04:50:35.420Z,11.40
2023-03-22T05:02:35.365Z,11.39
2023-03-22T05:14:35.353Z,11.38
2023-03-22T05:26:35.449Z,11.37
2023-03-22T05:38:35.441Z,11.36
2023-03-22T05:50:35.343Z,11.34
2023-03-22T06:02:35.426Z,11.32
2023-03-22T06:14:35.342Z,11.31
2023-03-22T06:26:35.456Z,11.30
2023-03-22T06:38:35.377Z,11.31
2023-03-22T06:50:35.342Z,11.33
2023-03-22T07:02:35.322Z,11.32
2023-03-22T07:14:35.329Z,11.34
2023-03-22T07:26:35.387Z,11.36
2023-03-22T07:38:35.541Z,11.36
2023-03-22T07:50:35.499Z,11.45
2023-03-22T08:02:35.505Z,11.56
2023-03-22T08:14:36.793Z,11.60
2023-03-22T08:26:35.391Z,11.75
2023-03-22T08:38:35.458Z,11.74
2023-03-22T08:50:35.353Z,11.74
2023-03-22T09:02:35.334Z,11.92
2023-03-22T09:14:35.441Z,11.98
2023-03-22T09:26:35.466Z,12.18
2023-03-22T09:38:35.497Z,12.18
2023-03-22T09:50:35.335Z,12.49
2023-03-22T10:02:35.473Z,12.46
2023-03-22T10:14:35.343Z,12.56
2023-03-22T10:26:35.324Z,12.89
2023-03-22T10:38:35.337Z,12.87
2023-03-22T10:50:35.658Z,12.87
2023-03-22T11:02:35.531Z,12.88
2023-03-22T11:14:35.339Z,12.87
2023-03-22T11:26:38.837Z,12.87
2023-03-22T11:38:35.524Z,12.92
2023-03-22T11:50:35.353Z,12.91
2023-03-22T12:02:35.381Z,12.88
2023-03-22T12:14:35.328Z,12.87
2023-03-22T12:26:35.453Z,12.87
2023-03-22T12:38:35.536Z,12.83
2023-03-22T12:50:35.335Z,12.84
2023-03-22T13:02:35.512Z,12.84
2023-03-22T13:14:35.458Z,12.84
2023-03-22T13:26:35.332Z,12.84
2023-03-22T13:38:35.375Z,12.88
2023-03-22T13:50:35.420Z,12.88
2023-03-22T14:02:35.434Z,12.88
2023-03-22T14:14:35.340Z,12.83
2023-03-22T15:02:35.376Z,12.83
2023-03-22T15:14:35.304Z,12.86
2023-03-22T15:26:35.430Z,12.65
2023-03-22T15:38:43.171Z,12.09
2023-03-22T15:50:35.357Z,12.08
2023-03-22T16:02:35.396Z,12.12
2023-03-22T16:14:35.311Z,12.09
2023-03-22T16:26:35.305Z,12.14
2023-03-22T16:38:35.422Z,12.08
2023-03-22T16:50:35.317Z,11.99
2023-03-22T17:02:35.419Z,12.02
2023-03-22T17:14:35.311Z,12.00
2023-03-22T17:26:35.411Z,11.98
2023-03-22T17:38:44.073Z,11.96
2023-03-22T17:50:37.201Z,11.95
2023-03-22T18:02:35.494Z,11.91
2023-03-22T18:14:40.644Z,11.91
2023-03-22T18:39:07.167Z,11.89
2023-03-22T18:50:35.319Z,11.87
2023-03-22T19:02:39.769Z,11.82
2023-03-22T19:26:35.455Z,11.83
2023-03-22T19:38:35.435Z,11.82
2023-03-22T19:50:35.390Z,11.81
2023-03-22T20:02:35.308Z,11.79
2023-03-22T20:14:35.322Z,11.78
2023-03-22T20:26:35.404Z,11.77
2023-03-22T20:38:35.412Z,11.76
2023-03-22T20:50:35.409Z,11.74
2023-03-22T21:02:35.422Z,11.72
2023-03-22T21:14:35.307Z,12.25
2023-03-22T21:26:35.430Z,12.24
2023-03-22T21:38:35.413Z,12.22
2023-03-22T21:50:35.331Z,12.21
2023-03-22T22:02:35.365Z,12.19
2023-03-22T22:14:35.316Z,12.18
2023-03-22T22:26:35.402Z,12.18
2023-03-22T22:38:35.307Z,12.17
2023-03-22T22:50:35.697Z,12.16
2023-03-22T23:02:35.428Z,12.14
2023-03-22T23:14:35.302Z,12.13
2023-03-22T23:26:35.323Z,12.12
2023-03-22T23:38:35.305Z,12.11
2023-03-22T23:50:35.389Z,12.10
